Time;durP1;ratioP1;P1;durP2;ratioP2;P2;SDS_P1;SDS_P2;PMS_P1;PMS_P2;Temp;Humidity;BMP_temperature;BMP_pressure;BME280_temperature;BME280_humidity;BME280_pressure;Samples;Min_cycle;Max_cycle;Signal;HPM_P1;HPM_P2
2022/11/03 00:01:36;;;;;;;5.53;2.00;;;;;;;;;;5053958;28;20204;-44
2022/11/03 00:04:04;;;;;;;5.57;2.17;;;;;;;;;;5054029;28;20283;-45
2022/11/03 00:06:30;;;;;;;5.50;2.20;;;;;;;;;;5053894;28;20689;-45
2022/11/03 00:08:57;;;;;;;7.37;2.03;;;;;;;;;;5053632;28;20224;-45
2022/11/03 00:11:23;;;;;;;4.90;2.20;;;;;;;;;;5054217;28;20250;-45
2022/11/03 00:13:49;;;;;;;8.83;2.30;;;;;;;;;;5053797;28;20200;-45
2022/11/03 00:16:15;;;;;;;8.40;1.77;;;;;;;;;;5054178;28;20204;-45
2022/11/03 00:18:41;;;;;;;6.30;1.90;;;;;;;;;;5053820;28;20677;-45
2022/11/03 00:21:09;;;;;;;3.93;2.00;;;;;;;;;;5053720;28;20666;-45
2022/11/03 00:23:36;;;;;;;4.53;2.30;;;;;;;;;;5053694;28;20239;-45
2022/11/03 00:26:03;;;;;;;9.23;2.30;;;;;;;;;;5053809;28;20204;-45
2022/11/03 00:28:30;;;;;;;9.53;2.47;;;;;;;;;;5053355;28;20255;-45
2022/11/03 00:30:56;;;;;;;7.17;1.90;;;;;;;;;;5053620;28;20557;-45
2022/11/03 00:33:25;;;;;;;4.97;1.97;;;;;;;;;;5053268;28;20210;-45
2022/11/03 00:35:55;;;;;;;6.97;2.93;;;;;;;;;;5053611;28;20208;-45
2022/11/03 00:38:23;;;;;;;5.73;1.93;;;;;;;;;;5053418;28;20548;-45
2022/11/03 00:40:52;;;;;;;6.27;2.30;;;;;;;;;;5053426;28;20254;-45
2022/11/03 00:43:18;;;;;;;5.67;2.13;;;;;;;;;;5053382;28;20200;-45
2022/11/03 00:45:44;;;;;;;7.83;2.10;;;;;;;;;;5053032;28;20655;-45
2022/11/03 00:48:28;;;;;;;6.17;2.33;;;;;;;;;;5053188;28;20282;-45
2022/11/03 00:50:54;;;;;;;5.40;2.30;;;;;;;;;;5053375;28;20254;-44
2022/11/03 00:53:20;;;;;;;6.13;2.13;;;;;;;;;;5053286;28;20655;-44
2022/11/03 00:55:50;;;;;;;8.93;2.40;;;;;;;;;;5053012;28;20230;-44
2022/11/03 00:58:16;;;;;;;7.67;2.10;;;;;;;;;;5053067;28;20917;-44
2022/11/03 01:00:42;;;;;;;4.87;2.37;;;;;;;;;;5053102;28;20370;-45
2022/11/03 01:03:08;;;;;;;5.10;2.20;;;;;;;;;;5053243;28;20284;-44
2022/11/03 01:08:18;;;;;;;3.33;1.80;;;;;;;;;;5052412;28;20231;-45
2022/11/03 01:13:30;;;;;;;4.57;2.07;;;;;;;;;;5052874;28;20199;-44
2022/11/03 01:15:57;;;;;;;6.33;2.10;;;;;;;;;;5052893;28;20228;-45
2022/11/03 01:18:23;;;;;;;5.87;2.03;;;;;;;;;;5052925;28;20201;-43
2022/11/03 01:20:53;;;;;;;5.53;2.17;;;;;;;;;;5052801;28;20764;-42
2022/11/03 01:23:19;;;;;;;5.00;1.73;;;;;;;;;;5052933;28;20257;-45
2022/11/03 01:25:45;;;;;;;6.33;2.20;;;;;;;;;;5052397;28;20617;-43
2022/11/03 01:28:11;;;;;;;7.40;2.27;;;;;;;;;;5049591;28;20767;-42
2022/11/03 01:30:39;;;;;;;3.97;1.60;;;;;;;;;;5051967;28;20209;-42
2022/11/03 01:33:05;;;;;;;4.37;1.70;;;;;;;;;;5051460;28;20246;-43
2022/11/03 01:35:31;;;;;;;6.40;2.03;;;;;;;;;;5052295;28;20228;-42
2022/11/03 01:37:57;;;;;;;5.93;2.10;;;;;;;;;;5052170;28;20249;-43
2022/11/03 01:40:23;;;;;;;8.07;2.30;;;;;;;;;;5052558;28;20200;-43
2022/11/03 01:42:49;;;;;;;5.33;2.03;;;;;;;;;;5051644;28;20199;-42
2022/11/03 01:45:15;;;;;;;7.50;2.37;;;;;;;;;;5051263;28;20210;-45
2022/11/03 01:47:43;;;;;;;4.77;2.00;;;;;;;;;;5052098;28;20219;-43
2022/11/03 01:50:11;;;;;;;5.33;1.97;;;;;;;;;;5052315;28;20200;-43
2022/11/03 01:52:39;;;;;;;5.70;2.10;;;;;;;;;;5052123;28;20327;-42
2022/11/03 01:55:07;;;;;;;4.03;1.80;;;;;;;;;;5052226;28;20207;-44
2022/11/03 01:57:36;;;;;;;4.17;1.67;;;;;;;;;;5051826;28;20556;-44
2022/11/03 02:00:03;;;;;;;7.63;2.50;;;;;;;;;;5052065;28;20204;-44
2022/11/03 02:02:29;;;;;;;6.70;2.20;;;;;;;;;;5052102;28;20204;-44
2022/11/03 02:04:58;;;;;;;7.97;1.90;;;;;;;;;;5051727;28;20196;-44
2022/11/03 02:07:26;;;;;;;8.23;2.33;;;;;;;;;;5051071;28;20196;-45
2022/11/03 02:09:52;;;;;;;6.23;1.97;;;;;;;;;;5051868;28;20320;-44
2022/11/03 02:12:19;;;;;;;5.17;2.00;;;;;;;;;;5051799;28;20633;-44
2022/11/03 02:14:50;;;;;;;6.80;2.33;;;;;;;;;;5051773;28;20208;-45
2022/11/03 02:17:17;;;;;;;5.23;2.00;;;;;;;;;;5051754;28;20724;-44
2022/11/03 02:19:45;;;;;;;8.73;2.33;;;;;;;;;;5051466;28;20368;-44
2022/11/03 02:22:26;;;;;;;6.93;2.17;;;;;;;;;;5051443;28;20296;-44
2022/11/03 02:24:53;;;;;;;7.03;2.00;;;;;;;;;;5051673;28;20733;-44
2022/11/03 02:27:20;;;;;;;5.13;2.27;;;;;;;;;;5051362;28;20200;-44
2022/11/03 02:29:47;;;;;;;7.17;2.30;;;;;;;;;;5051482;28;20239;-44
2022/11/03 02:32:19;;;;;;;6.30;2.07;;;;;;;;;;5050454;28;20299;-44
2022/11/03 02:34:48;;;;;;;7.30;2.37;;;;;;;;;;5051510;28;20283;-45
2022/11/03 02:37:16;;;;;;;5.70;2.10;;;;;;;;;;5051254;28;20200;-44
2022/11/03 02:39:44;;;;;;;5.17;2.23;;;;;;;;;;5051525;28;20722;-45
2022/11/03 02:42:11;;;;;;;6.67;2.10;;;;;;;;;;5051465;28;20200;-45
2022/11/03 02:44:38;;;;;;;9.07;2.17;;;;;;;;;;5051388;28;20250;-44
2022/11/03 02:47:06;;;;;;;6.63;2.43;;;;;;;;;;5051508;28;20204;-44
2022/11/03 02:49:37;;;;;;;6.43;2.27;;;;;;;;;;5051458;28;20227;-44
2022/11/03 02:52:04;;;;;;;5.67;2.20;;;;;;;;;;5051326;28;20259;-44
2022/11/03 02:54:33;;;;;;;6.40;2.23;;;;;;;;;;5051384;28;20216;-44
2022/11/03 02:57:01;;;;;;;5.73;2.10;;;;;;;;;;5051290;28;20202;-45
2022/11/03 02:59:29;;;;;;;6.50;2.10;;;;;;;;;;5051224;28;20207;-44
2022/11/03 03:01:59;;;;;;;9.40;2.27;;;;;;;;;;5051376;28;20200;-44
2022/11/03 03:04:26;;;;;;;8.13;2.30;;;;;;;;;;5051219;28;20632;-44
2022/11/03 03:06:54;;;;;;;5.23;1.80;;;;;;;;;;5051161;28;20536;-44
2022/11/03 03:09:22;;;;;;;5.83;2.07;;;;;;;;;;5050942;28;20780;-45
2022/11/03 03:11:51;;;;;;;8.77;2.67;;;;;;;;;;5050861;28;20659;-44
2022/11/03 03:14:19;;;;;;;6.27;2.37;;;;;;;;;;5051115;28;20291;-44
2022/11/03 03:16:49;;;;;;;5.57;2.27;;;;;;;;;;5050925;28;20262;-44
2022/11/03 03:19:26;;;;;;;6.37;2.13;;;;;;;;;;5051155;28;20268;-44
2022/11/03 03:21:53;;;;;;;8.10;2.40;;;;;;;;;;5050927;28;20207;-45
2022/11/03 03:24:22;;;;;;;4.70;2.20;;;;;;;;;;5050991;28;20701;-44
2022/11/03 03:26:49;;;;;;;6.67;2.07;;;;;;;;;;5050966;28;20226;-44
2022/11/03 03:29:17;;;;;;;7.13;2.03;;;;;;;;;;5051114;28;20232;-44
2022/11/03 03:31:46;;;;;;;3.50;1.80;;;;;;;;;;5050842;28;20574;-44
2022/11/03 03:34:12;;;;;;;6.00;1.90;;;;;;;;;;5068606;28;20199;-45
2022/11/03 03:36:41;;;;;;;5.03;2.40;;;;;;;;;;5074379;28;20206;-44
2022/11/03 03:39:10;;;;;;;8.40;2.43;;;;;;;;;;5074309;28;20196;-44
2022/11/03 03:41:36;;;;;;;8.07;2.23;;;;;;;;;;5074444;28;20195;-45
2022/11/03 03:44:04;;;;;;;6.37;2.60;;;;;;;;;;5074757;28;20204;-44
2022/11/03 03:46:32;;;;;;;5.27;2.40;;;;;;;;;;5074401;28;20206;-44
2022/11/03 03:48:58;;;;;;;5.80;2.23;;;;;;;;;;5074629;28;20305;-44
2022/11/03 03:51:26;;;;;;;7.03;2.40;;;;;;;;;;5074355;28;20775;-45
2022/11/03 03:53:54;;;;;;;6.93;2.30;;;;;;;;;;5074430;28;20229;-45
2022/11/03 03:56:23;;;;;;;5.27;2.10;;;;;;;;;;5074226;28;20202;-44
2022/11/03 03:58:49;;;;;;;6.43;2.23;;;;;;;;;;5073175;28;20196;-44
2022/11/03 04:01:15;;;;;;;5.17;2.33;;;;;;;;;;5074398;28;20199;-45
2022/11/03 04:03:41;;;;;;;7.03;2.20;;;;;;;;;;5074201;28;20257;-44
2022/11/03 04:06:07;;;;;;;7.93;2.30;;;;;;;;;;5074162;28;20253;-44
2022/11/03 04:08:33;;;;;;;8.53;2.30;;;;;;;;;;5072567;28;20292;-44
2022/11/03 04:22:16;;;;;;;8.27;2.93;;;;;;;;;;5073945;28;20198;-45
2022/11/03 04:24:42;;;;;;;4.90;2.20;;;;;;;;;;5073816;28;20658;-45
2022/11/03 04:27:20;;;;;;;5.27;2.03;;;;;;;;;;5073892;28;20192;-45
2022/11/03 04:29:46;;;;;;;7.30;2.40;;;;;;;;;;5073890;28;20207;-44
2022/11/03 04:32:14;;;;;;;8.07;2.40;;;;;;;;;;5073936;28;20196;-45
2022/11/03 04:34:40;;;;;;;4.87;2.10;;;;;;;;;;5073838;28;20199;-45
2022/11/03 04:37:08;;;;;;;5.33;2.67;;;;;;;;;;5073564;28;20567;-44
2022/11/03 04:39:34;;;;;;;6.93;2.70;;;;;;;;;;5073565;28;20700;-45
2022/11/03 04:42:00;;;;;;;7.23;2.20;;;;;;;;;;5073427;28;20196;-44
2022/11/03 04:44:29;;;;;;;5.77;2.40;;;;;;;;;;5073277;28;20235;-45
2022/11/03 04:46:55;;;;;;;7.80;2.90;;;;;;;;;;5073665;28;20253;-44
2022/11/03 04:49:22;;;;;;;7.70;2.73;;;;;;;;;;5073578;28;20258;-44
2022/11/03 04:51:48;;;;;;;5.70;1.97;;;;;;;;;;5073156;28;20235;-45
2022/11/03 04:54:16;;;;;;;6.23;2.20;;;;;;;;;;5073455;28;20195;-44
2022/11/03 04:56:42;;;;;;;4.57;2.20;;;;;;;;;;5073215;28;20303;-45
2022/11/03 04:59:11;;;;;;;8.30;2.60;;;;;;;;;;5072858;28;20191;-45
2022/11/03 05:01:38;;;;;;;7.80;2.87;;;;;;;;;;5073348;28;20204;-45
2022/11/03 05:04:08;;;;;;;6.87;2.50;;;;;;;;;;5073179;28;20183;-44
2022/11/03 05:06:34;;;;;;;7.60;2.43;;;;;;;;;;5073084;28;20253;-44
2022/11/03 05:09:01;;;;;;;7.30;2.60;;;;;;;;;;5072954;28;20240;-44
2022/11/03 05:11:30;;;;;;;9.00;2.43;;;;;;;;;;5073066;28;20207;-45
2022/11/03 05:13:58;;;;;;;9.47;2.80;;;;;;;;;;5072883;28;20278;-45
2022/11/03 05:16:24;;;;;;;4.63;2.30;;;;;;;;;;5073012;28;20196;-45
2022/11/03 05:18:51;;;;;;;7.27;2.37;;;;;;;;;;5072962;28;20191;-45
2022/11/03 05:21:18;;;;;;;5.63;2.53;;;;;;;;;;5072938;28;20204;-45
2022/11/03 05:23:46;;;;;;;5.87;2.73;;;;;;;;;;5072803;28;20191;-45
2022/11/03 05:26:14;;;;;;;5.57;2.13;;;;;;;;;;5070861;28;20642;-45
2022/11/03 05:28:41;;;;;;;7.03;2.33;;;;;;;;;;5072565;28;20228;-45
2022/11/03 05:31:14;;;;;;;6.27;2.73;;;;;;;;;;5072927;28;20227;-45
2022/11/03 05:33:40;;;;;;;5.43;2.37;;;;;;;;;;5072678;28;20218;-44
2022/11/03 05:36:13;;;;;;;5.47;2.93;;;;;;;;;;5072447;28;20677;-44
2022/11/03 05:38:39;;;;;;;7.57;2.50;;;;;;;;;;5072440;28;20195;-45
2022/11/03 05:41:11;;;;;;;7.53;2.70;;;;;;;;;;5072144;28;20206;-45
2022/11/03 05:43:37;;;;;;;5.23;2.87;;;;;;;;;;5072052;28;20199;-44
2022/11/03 05:46:03;;;;;;;8.27;2.90;;;;;;;;;;5072582;28;20286;-45
2022/11/03 05:48:31;;;;;;;9.07;2.53;;;;;;;;;;5072156;28;20717;-45
2022/11/03 05:50:59;;;;;;;7.50;3.17;;;;;;;;;;5072322;28;20330;-45
2022/11/03 05:53:28;;;;;;;8.17;2.80;;;;;;;;;;5072328;28;20210;-44
2022/11/03 05:55:55;;;;;;;7.60;2.70;;;;;;;;;;5071613;28;20207;-45
2022/11/03 05:58:23;;;;;;;6.83;3.37;;;;;;;;;;5072061;28;20195;-44
2022/11/03 06:00:49;;;;;;;8.13;2.73;;;;;;;;;;5072023;28;20204;-44
2022/11/03 06:03:16;;;;;;;10.93;2.77;;;;;;;;;;5071874;28;20694;-44
2022/11/03 06:05:42;;;;;;;5.07;2.60;;;;;;;;;;5071805;28;20279;-43
2022/11/03 06:08:13;;;;;;;5.43;2.60;;;;;;;;;;5071403;28;20292;-44
2022/11/03 06:10:41;;;;;;;8.07;2.70;;;;;;;;;;5071553;28;20191;-44
2022/11/03 06:13:11;;;;;;;6.87;2.53;;;;;;;;;;5071714;28;20203;-45
2022/11/03 06:15:37;;;;;;;8.37;2.97;;;;;;;;;;5071701;28;20253;-44
2022/11/03 06:18:13;;;;;;;4.80;2.77;;;;;;;;;;5071055;28;20202;-45
2022/11/03 06:20:39;;;;;;;8.93;3.17;;;;;;;;;;5071598;28;20233;-44
2022/11/03 06:23:08;;;;;;;7.23;3.07;;;;;;;;;;5071379;28;20202;-44
2022/11/03 06:25:36;;;;;;;8.03;2.93;;;;;;;;;;5071570;28;20203;-44
2022/11/03 06:28:04;;;;;;;7.80;2.80;;;;;;;;;;5071124;28;20763;-48
2022/11/03 06:30:31;;;;;;;7.93;2.77;;;;;;;;;;5071624;28;20204;-45
2022/11/03 06:32:58;;;;;;;4.53;2.70;;;;;;;;;;5071502;28;20199;-44
2022/11/03 06:35:25;;;;;;;8.10;2.70;;;;;;;;;;5071454;28;20286;-45
2022/11/03 06:37:51;;;;;;;7.73;2.33;;;;;;;;;;5071488;28;20195;-45
2022/11/03 06:40:32;;;;;;;6.83;2.40;;;;;;;;;;5071376;28;20621;-45
2022/11/03 06:42:58;;;;;;;3.97;2.40;;;;;;;;;;5071488;28;20195;-45
2022/11/03 06:45:26;;;;;;;7.10;3.03;;;;;;;;;;5071452;28;20197;-44
2022/11/03 06:47:53;;;;;;;12.67;3.33;;;;;;;;;;5071451;28;20200;-44
2022/11/03 06:50:21;;;;;;;9.00;2.80;;;;;;;;;;5071463;28;20199;-44
2022/11/03 06:52:48;;;;;;;10.00;2.97;;;;;;;;;;5071051;28;20259;-45
2022/11/03 06:55:21;;;;;;;8.57;3.27;;;;;;;;;;5071194;28;20240;-45
2022/11/03 06:57:47;;;;;;;8.90;3.17;;;;;;;;;;5071233;28;20638;-45
2022/11/03 07:00:17;;;;;;;7.13;2.40;;;;;;;;;;5071456;28;20649;-45
2022/11/03 07:02:52;;;;;;;7.17;2.70;;;;;;;;;;5071167;28;20650;-45
2022/11/03 07:05:21;;;;;;;5.03;2.50;;;;;;;;;;5071504;28;20195;-44
2022/11/03 07:07:47;;;;;;;10.30;2.70;;;;;;;;;;5074004;28;20239;-45
2022/11/03 07:10:13;;;;;;;7.57;2.67;;;;;;;;;;5074445;28;20245;-45
2022/11/03 07:12:40;;;;;;;8.73;2.40;;;;;;;;;;5073953;28;20817;-44
2022/11/03 07:15:16;;;;;;;6.43;2.80;;;;;;;;;;5073954;28;20701;-45
2022/11/03 07:17:42;;;;;;;10.83;3.13;;;;;;;;;;5074974;28;20665;-45
2022/11/03 07:20:13;;;;;;;8.57;2.40;;;;;;;;;;5074830;28;20237;-45
2022/11/03 07:22:39;;;;;;;8.03;2.60;;;;;;;;;;5074662;28;20199;-44
2022/11/03 07:25:06;;;;;;;6.17;2.60;;;;;;;;;;5073797;28;20230;-44
2022/11/03 07:27:34;;;;;;;5.20;2.57;;;;;;;;;;5075104;28;20339;-44
2022/11/03 07:30:11;;;;;;;6.37;2.30;;;;;;;;;;5074575;28;20223;-43
2022/11/03 07:32:38;;;;;;;6.60;2.10;;;;;;;;;;5074610;28;20199;-43
2022/11/03 07:35:09;;;;;;;8.37;2.50;;;;;;;;;;5074552;28;20295;-44
2022/11/03 07:37:37;;;;;;;11.50;2.97;;;;;;;;;;5074756;28;20295;-43
2022/11/03 07:40:04;;;;;;;4.57;2.10;;;;;;;;;;5074573;28;20207;-44
2022/11/03 07:42:31;;;;;;;7.80;2.90;;;;;;;;;;5074150;28;20215;-44
2022/11/03 07:44:57;;;;;;;8.60;2.50;;;;;;;;;;5074445;28;20658;-44
2022/11/03 07:47:27;;;;;;;6.87;2.70;;;;;;;;;;5074534;28;20209;-44
2022/11/03 07:49:53;;;;;;;4.80;2.60;;;;;;;;;;5074185;28;20215;-44
2022/11/03 07:52:21;;;;;;;6.57;2.70;;;;;;;;;;5073492;28;20330;-44
2022/11/03 07:54:49;;;;;;;9.70;2.90;;;;;;;;;;5073083;28;20225;-43
2022/11/03 07:57:20;;;;;;;7.07;2.90;;;;;;;;;;5074147;28;20632;-44
2022/11/03 07:59:48;;;;;;;6.63;2.63;;;;;;;;;;5073987;28;20191;-45
2022/11/03 08:02:18;;;;;;;7.10;2.20;;;;;;;;;;5074227;28;20207;-44
2022/11/03 08:04:44;;;;;;;9.77;2.27;;;;;;;;;;5074319;28;20191;-44
2022/11/03 08:07:10;;;;;;;5.70;2.40;;;;;;;;;;5073401;28;20202;-46
2022/11/03 08:09:36;;;;;;;8.07;2.83;;;;;;;;;;5073808;28;20608;-46
2022/11/03 08:12:04;;;;;;;7.53;2.77;;;;;;;;;;5073717;28;20331;-46
2022/11/03 08:14:30;;;;;;;8.70;2.70;;;;;;;;;;5072491;28;20294;-44
2022/11/03 08:16:56;;;;;;;7.50;2.60;;;;;;;;;;5073536;28;20694;-44
2022/11/03 08:19:22;;;;;;;7.97;2.50;;;;;;;;;;5073269;28;20196;-44
2022/11/03 08:21:48;;;;;;;10.97;2.70;;;;;;;;;;5073915;28;20195;-44
2022/11/03 08:24:15;;;;;;;7.70;2.40;;;;;;;;;;5073858;28;20204;-44
2022/11/03 08:26:41;;;;;;;6.10;2.33;;;;;;;;;;5073421;28;20256;-44
2022/11/03 08:29:08;;;;;;;5.60;2.30;;;;;;;;;;5073206;28;20277;-44
2022/11/03 08:31:34;;;;;;;4.40;2.23;;;;;;;;;;5072826;28;20286;-44
2022/11/03 08:34:00;;;;;;;7.50;2.30;;;;;;;;;;5071995;28;20256;-44
2022/11/03 08:36:26;;;;;;;8.60;2.30;;;;;;;;;;5072018;28;20198;-44
2022/11/03 08:38:52;;;;;;;6.30;2.47;;;;;;;;;;5073150;28;20195;-45
2022/11/03 08:41:19;;;;;;;6.47;2.80;;;;;;;;;;5073043;28;20278;-44
2022/11/03 08:43:45;;;;;;;5.73;2.10;;;;;;;;;;5072984;28;20244;-44
2022/11/03 08:46:12;;;;;;;4.63;2.40;;;;;;;;;;5073608;28;20203;-44
2022/11/03 08:48:38;;;;;;;5.43;2.87;;;;;;;;;;5073273;28;20220;-45
2022/11/03 08:51:04;;;;;;;6.53;2.13;;;;;;;;;;5073369;28;20231;-45
2022/11/03 08:53:30;;;;;;;4.53;2.07;;;;;;;;;;5073643;28;20206;-46
2022/11/03 08:55:56;;;;;;;7.20;2.27;;;;;;;;;;5072554;28;20278;-45
2022/11/03 08:58:22;;;;;;;6.47;2.43;;;;;;;;;;5073276;28;20411;-45
2022/11/03 09:00:49;;;;;;;6.20;2.30;;;;;;;;;;5073147;28;20242;-45
2022/11/03 09:03:16;;;;;;;4.87;2.07;;;;;;;;;;5073313;28;20191;-45
2022/11/03 09:05:42;;;;;;;8.90;2.30;;;;;;;;;;5073012;28;20630;-46
2022/11/03 09:08:08;;;;;;;6.37;2.30;;;;;;;;;;5072864;28;20298;-43
2022/11/03 09:10:34;;;;;;;7.07;2.30;;;;;;;;;;5072841;28;20227;-43
2022/11/03 09:13:00;;;;;;;8.67;2.30;;;;;;;;;;5072620;28;20195;-43
2022/11/03 09:15:27;;;;;;;4.73;2.47;;;;;;;;;;5071873;28;20229;-43
2022/11/03 09:17:53;;;;;;;6.87;2.33;;;;;;;;;;5072688;28;20694;-45
2022/11/03 09:20:20;;;;;;;6.93;2.47;;;;;;;;;;5072778;28;20203;-46
2022/11/03 09:22:46;;;;;;;5.90;2.20;;;;;;;;;;5072610;28;20670;-45
2022/11/03 09:25:12;;;;;;;6.60;2.30;;;;;;;;;;5072839;28;20210;-44
2022/11/03 09:27:38;;;;;;;4.83;2.30;;;;;;;;;;5072552;28;20650;-44
2022/11/03 09:30:05;;;;;;;8.07;2.20;;;;;;;;;;5071563;28;20230;-44
2022/11/03 09:32:31;;;;;;;5.93;2.00;;;;;;;;;;5072196;28;20216;-44
2022/11/03 09:34:57;;;;;;;5.30;2.07;;;;;;;;;;5071878;28;20619;-44
2022/11/03 09:37:24;;;;;;;6.50;2.33;;;;;;;;;;5072424;28;20230;-44
2022/11/03 09:39:50;;;;;;;5.30;2.30;;;;;;;;;;5072249;28;20199;-44
2022/11/03 09:42:17;;;;;;;5.53;2.10;;;;;;;;;;5072207;28;20203;-44
2022/11/03 09:44:43;;;;;;;7.07;2.57;;;;;;;;;;5072195;28;20203;-44
2022/11/03 09:47:11;;;;;;;4.63;2.50;;;;;;;;;;5072332;28;20230;-44
2022/11/03 09:49:37;;;;;;;7.23;2.37;;;;;;;;;;5071746;28;20223;-44
2022/11/03 09:52:16;;;;;;;5.37;2.27;;;;;;;;;;5108793;27;20550;-44
2022/11/03 09:54:42;;;;;;;5.63;2.13;;;;;;;;;;5109270;28;20205;-45
2022/11/03 09:57:10;;;;;;;8.10;2.70;;;;;;;;;;5109076;28;20194;-45
2022/11/03 09:59:38;;;;;;;8.40;2.43;;;;;;;;;;5109196;28;20196;-44
2022/11/03 10:02:14;;;;;;;5.63;2.57;;;;;;;;;;5109026;28;20198;-44
2022/11/03 10:04:40;;;;;;;4.80;2.30;;;;;;;;;;5108045;28;20220;-44
2022/11/03 10:07:07;;;;;;;5.93;2.53;;;;;;;;;;5108836;28;20206;-44
2022/11/03 10:09:34;;;;;;;8.70;1.87;;;;;;;;;;5108936;28;20696;-44
2022/11/03 10:12:00;;;;;;;7.10;2.23;;;;;;;;;;5108418;28;20321;-44
2022/11/03 10:14:27;;;;;;;5.37;2.47;;;;;;;;;;5108983;28;20217;-44
2022/11/03 10:16:55;;;;;;;5.47;2.10;;;;;;;;;;5108745;28;20300;-44
2022/11/03 10:19:23;;;;;;;5.80;2.37;;;;;;;;;;5107989;28;20200;-44
2022/11/03 10:21:50;;;;;;;6.70;2.30;;;;;;;;;;5108013;28;20195;-44
2022/11/03 10:24:16;;;;;;;7.03;2.27;;;;;;;;;;5108326;28;20205;-44
2022/11/03 10:26:44;;;;;;;7.10;2.43;;;;;;;;;;5108756;28;20201;-44
2022/11/03 10:29:18;;;;;;;7.80;2.30;;;;;;;;;;5108720;28;20209;-44
2022/11/03 10:31:48;;;;;;;5.27;2.20;;;;;;;;;;5108632;28;20279;-44
2022/11/03 10:34:29;;;;;;;6.40;2.20;;;;;;;;;;5108765;28;20201;-44
2022/11/03 10:37:09;;;;;;;5.77;2.20;;;;;;;;;;5105647;28;20259;-44
2022/11/03 10:39:36;;;;;;;8.20;2.27;;;;;;;;;;5108117;28;20717;-44
2022/11/03 10:42:03;;;;;;;5.93;2.23;;;;;;;;;;5105851;28;20190;-44
2022/11/03 10:44:30;;;;;;;8.27;2.50;;;;;;;;;;5108373;28;20194;-45
2022/11/03 10:46:59;;;;;;;8.17;2.50;;;;;;;;;;5108199;28;20196;-44
2022/11/03 10:49:26;;;;;;;6.73;2.03;;;;;;;;;;5108232;28;20641;-44
2022/11/03 10:51:53;;;;;;;8.37;2.53;;;;;;;;;;5108027;28;20245;-44
2022/11/03 10:54:20;;;;;;;6.87;2.53;;;;;;;;;;5108319;28;20198;-44
2022/11/03 10:56:47;;;;;;;6.80;2.30;;;;;;;;;;5108111;28;20574;-44
2022/11/03 10:59:17;;;;;;;8.33;2.10;;;;;;;;;;5108294;28;20277;-43
2022/11/03 11:01:43;;;;;;;5.87;2.20;;;;;;;;;;5104565;28;20195;-46
2022/11/03 11:04:10;;;;;;;12.40;2.40;;;;;;;;;;5094757;28;20225;-44
2022/11/03 11:06:36;;;;;;;8.13;2.40;;;;;;;;;;5094178;28;20681;-44
2022/11/03 11:09:03;;;;;;;5.57;2.40;;;;;;;;;;5092812;28;20230;-44
2022/11/03 11:11:29;;;;;;;4.90;2.03;;;;;;;;;;5094469;28;20223;-44
2022/11/03 11:14:14;;;;;;;7.97;2.30;;;;;;;;;;5092800;28;20201;-44
2022/11/03 11:16:48;;;;;;;8.40;2.43;;;;;;;;;;5094603;28;20253;-45
2022/11/03 11:19:14;;;;;;;8.30;2.40;;;;;;;;;;5094685;28;20194;-45
2022/11/03 11:21:56;;;;;;;5.87;2.13;;;;;;;;;;5094311;28;20575;-45
2022/11/03 11:24:41;;;;;;;6.43;2.50;;;;;;;;;;5094516;28;20206;-45
2022/11/03 11:27:22;;;;;;;6.87;2.40;;;;;;;;;;5093995;28;20191;-45
2022/11/03 11:29:48;;;;;;;9.00;2.20;;;;;;;;;;5093475;28;20280;-45
2022/11/03 11:32:33;;;;;;;8.60;2.37;;;;;;;;;;5094337;28;20218;-44
2022/11/03 11:35:00;;;;;;;7.57;2.30;;;;;;;;;;5094307;28;20186;-44
2022/11/03 11:37:33;;;;;;;8.03;2.30;;;;;;;;;;5094030;28;20695;-44
2022/11/03 11:39:59;;;;;;;5.07;2.10;;;;;;;;;;5094013;28;20260;-44
2022/11/03 11:42:25;;;;;;;6.60;2.10;;;;;;;;;;5093800;28;20664;-43
2022/11/03 11:45:02;;;;;;;5.13;2.50;;;;;;;;;;5092319;28;20199;-43
2022/11/03 11:47:32;;;;;;;6.80;2.23;;;;;;;;;;5094124;28;20199;-43
2022/11/03 11:50:11;;;;;;;6.17;2.30;;;;;;;;;;5093400;28;20199;-44
2022/11/03 11:52:40;;;;;;;7.70;2.57;;;;;;;;;;5091834;28;20603;-44
2022/11/03 11:55:12;;;;;;;4.73;2.53;;;;;;;;;;5093341;28;20692;-44
2022/11/03 11:57:38;;;;;;;5.70;2.20;;;;;;;;;;5091221;28;20198;-43
2022/11/03 12:00:06;;;;;;;7.23;2.67;;;;;;;;;;5088050;28;20207;-44
2022/11/03 12:02:32;;;;;;;5.20;2.27;;;;;;;;;;5092669;28;20859;-45
2022/11/03 12:05:01;;;;;;;5.00;2.50;;;;;;;;;;5092887;28;20202;-45
2022/11/03 12:07:35;;;;;;;10.43;3.40;;;;;;;;;;5091318;28;20592;-44
2022/11/03 12:10:06;;;;;;;4.97;2.37;;;;;;;;;;5092708;28;20203;-45
2022/11/03 12:12:33;;;;;;;5.57;2.47;;;;;;;;;;5092851;28;20581;-45
2022/11/03 12:14:59;;;;;;;10.27;2.80;;;;;;;;;;5089598;28;20195;-44
2022/11/03 12:17:31;;;;;;;7.80;1.73;;;;;;;;;;5092751;28;20237;-44
2022/11/03 12:19:57;;;;;;;6.27;2.57;;;;;;;;;;5092818;28;20198;-44
2022/11/03 12:22:38;;;;;;;6.77;2.10;;;;;;;;;;5090710;28;20305;-44
2022/11/03 12:25:26;;;;;;;8.40;2.10;;;;;;;;;;5088319;28;20202;-44
2022/11/03 12:27:52;;;;;;;4.60;2.23;;;;;;;;;;5090817;28;20203;-45
2022/11/03 12:30:19;;;;;;;6.80;2.23;;;;;;;;;;5090940;28;20217;-44
2022/11/03 12:32:45;;;;;;;7.30;2.33;;;;;;;;;;5090679;28;20245;-45
2022/11/03 12:35:12;;;;;;;6.90;2.30;;;;;;;;;;5092378;28;20202;-44
2022/11/03 12:37:38;;;;;;;8.10;2.60;;;;;;;;;;5090717;28;20202;-44
2022/11/03 12:40:06;;;;;;;7.83;2.47;;;;;;;;;;5092321;28;20675;-44
2022/11/03 12:42:32;;;;;;;6.47;2.87;;;;;;;;;;5092614;28;20225;-44
2022/11/03 12:44:58;;;;;;;10.10;2.73;;;;;;;;;;5090237;28;20652;-44
2022/11/03 12:47:24;;;;;;;6.60;2.30;;;;;;;;;;5090763;28;20225;-44
2022/11/03 12:49:50;;;;;;;7.43;2.27;;;;;;;;;;5090309;28;20667;-45
2022/11/03 12:52:16;;;;;;;6.33;2.33;;;;;;;;;;5092619;28;20321;-45
2022/11/03 12:54:43;;;;;;;6.50;2.40;;;;;;;;;;5092768;28;20293;-44
2022/11/03 12:57:10;;;;;;;5.47;2.60;;;;;;;;;;5090745;28;20224;-44
2022/11/03 12:59:36;;;;;;;6.50;2.40;;;;;;;;;;5092466;28;20265;-44
2022/11/03 13:02:02;;;;;;;6.60;2.10;;;;;;;;;;5092243;28;20680;-44
2022/11/03 13:04:28;;;;;;;8.00;2.70;;;;;;;;;;5092318;28;20672;-45
2022/11/03 13:06:54;;;;;;;9.23;2.93;;;;;;;;;;5092241;28;20205;-44
2022/11/03 13:09:20;;;;;;;5.93;2.77;;;;;;;;;;5089811;28;20254;-44
2022/11/03 13:14:32;;;;;;;6.07;2.40;;;;;;;;;;5083456;28;20221;-44
2022/11/03 13:16:58;;;;;;;5.10;2.30;;;;;;;;;;5086044;28;20195;-44
2022/11/03 13:19:24;;;;;;;7.90;2.57;;;;;;;;;;5091155;28;20195;-44
2022/11/03 13:21:50;;;;;;;7.50;2.50;;;;;;;;;;5091691;28;20195;-46
2022/11/03 13:24:16;;;;;;;6.50;2.60;;;;;;;;;;5090886;28;20221;-50
2022/11/03 13:26:42;;;;;;;5.67;1.90;;;;;;;;;;5091132;28;20199;-51
2022/11/03 13:29:09;;;;;;;5.67;2.33;;;;;;;;;;5090935;28;20405;-44
2022/11/03 13:31:36;;;;;;;5.50;2.00;;;;;;;;;;5091676;28;20223;-44
2022/11/03 13:34:02;;;;;;;5.73;2.27;;;;;;;;;;5091431;28;20210;-44
2022/11/03 13:36:28;;;;;;;4.10;2.23;;;;;;;;;;5091553;28;20203;-45
2022/11/03 13:38:54;;;;;;;6.57;2.43;;;;;;;;;;5091645;28;20191;-45
2022/11/03 13:41:20;;;;;;;6.57;2.50;;;;;;;;;;5090923;28;20645;-44
2022/11/03 13:43:46;;;;;;;5.73;2.40;;;;;;;;;;5091336;28;20224;-44
2022/11/03 13:46:12;;;;;;;6.53;2.20;;;;;;;;;;5091147;28;20206;-45
2022/11/03 13:48:39;;;;;;;5.90;2.27;;;;;;;;;;5090609;28;20215;-45
2022/11/03 13:51:09;;;;;;;7.83;2.30;;;;;;;;;;5090920;28;20234;-45
2022/11/03 13:53:35;;;;;;;5.97;2.13;;;;;;;;;;5091448;28;20651;-44
2022/11/03 13:56:01;;;;;;;6.30;2.43;;;;;;;;;;5091203;28;20770;-44
2022/11/03 13:58:27;;;;;;;5.57;2.30;;;;;;;;;;5091501;28;20700;-44
2022/11/03 14:00:53;;;;;;;7.67;2.57;;;;;;;;;;5090236;28;20654;-44
2022/11/03 14:03:19;;;;;;;5.53;2.30;;;;;;;;;;5091429;28;20225;-44
2022/11/03 14:05:46;;;;;;;9.87;2.80;;;;;;;;;;5091670;28;20202;-45
2022/11/03 14:08:12;;;;;;;7.67;2.57;;;;;;;;;;5090667;28;20254;-44
2022/11/03 14:10:38;;;;;;;7.30;2.40;;;;;;;;;;5091127;28;20215;-44
2022/11/03 14:13:04;;;;;;;8.40;2.87;;;;;;;;;;5091236;28;20244;-44
2022/11/03 14:15:30;;;;;;;5.70;2.40;;;;;;;;;;5090919;28;20615;-44
2022/11/03 14:17:56;;;;;;;5.13;2.47;;;;;;;;;;5091084;28;20723;-44
2022/11/03 14:20:22;;;;;;;8.50;2.63;;;;;;;;;;5090960;28;20198;-44
2022/11/03 14:22:50;;;;;;;4.03;2.40;;;;;;;;;;5091075;28;20210;-44
2022/11/03 14:25:18;;;;;;;7.03;2.53;;;;;;;;;;5091009;28;20303;-45
2022/11/03 14:27:45;;;;;;;5.57;2.47;;;;;;;;;;5091300;28;20199;-44
2022/11/03 14:30:12;;;;;;;4.63;2.33;;;;;;;;;;5091122;28;20218;-44
2022/11/03 14:32:38;;;;;;;6.13;2.47;;;;;;;;;;5090250;28;20645;-44
2022/11/03 14:35:04;;;;;;;4.30;2.43;;;;;;;;;;5090767;28;20192;-44
2022/11/03 14:37:30;;;;;;;5.60;2.30;;;;;;;;;;5092559;28;20198;-44
2022/11/03 14:39:58;;;;;;;7.07;2.47;;;;;;;;;;5094401;28;20651;-44
2022/11/03 14:42:24;;;;;;;7.30;2.57;;;;;;;;;;5094662;28;20745;-44
2022/11/03 14:44:50;;;;;;;7.07;2.47;;;;;;;;;;5094446;28;20234;-45
2022/11/03 14:47:17;;;;;;;6.87;2.40;;;;;;;;;;5094973;28;20194;-45
2022/11/03 14:49:44;;;;;;;5.13;2.47;;;;;;;;;;5093858;28;20910;-44
2022/11/03 14:52:10;;;;;;;4.27;2.23;;;;;;;;;;5094215;28;20239;-44
2022/11/03 14:54:36;;;;;;;5.03;2.10;;;;;;;;;;5094446;28;20195;-44
2022/11/03 14:57:04;;;;;;;4.33;2.10;;;;;;;;;;5094052;28;20276;-44
2022/11/03 14:59:30;;;;;;;7.37;2.67;;;;;;;;;;5094399;28;20661;-44
2022/11/03 15:01:57;;;;;;;7.10;2.70;;;;;;;;;;5094673;28;20248;-45
2022/11/03 15:04:23;;;;;;;7.37;2.77;;;;;;;;;;5093782;28;20645;-45
2022/11/03 15:06:49;;;;;;;6.00;2.60;;;;;;;;;;5094113;28;20718;-45